HAZ1882 ZGSZ-ZSSS
Flight info
| Callsign | HAZ1882 |
|---|---|
| Flight time | N/A |
| Altitude | 35100 |
| Route | IDUMA1 IDUMA W41 ISLOM G471 XEBUL H22 UPNUG W76 AREPI B221 SHZ G204 JTN |
| Aircraft | A320/M-SDE3FGHIRWY/HB1 |
Departure
| Time | 2026-04-26 13:00 |
|---|---|
| Airport | Shenzhen Bao'an International Airport (ZGSZ) |
Arrival
| Time | N/A |
|---|---|
| Airport | Shanghai Hongqiao International Airport (ZSSS) |
| Time | Latitude | Longitude | Altitude | Speed | Heading |
|---|---|---|---|---|---|
| 2026-04-26 12:37 | 22.64204 | 113.80185 | 15 ft | 0 kts | 31° |
| 2026-04-26 12:49 | 22.64186 | 113.80173 | 15 ft | 4 kts | 31° |
| 2026-04-26 12:49 | 22.64163 | 113.80157 | 16 ft | 4 kts | 31° |
| 2026-04-26 12:49 | 22.64141 | 113.80142 | 16 ft | 4 kts | 38° |
| 2026-04-26 12:50 | 22.64122 | 113.80122 | 16 ft | 4 kts | 66° |
| 2026-04-26 12:50 | 22.64118 | 113.80106 | 15 ft | 0 kts | 93° |
| 2026-04-26 12:54 | 22.64118 | 113.80107 | 15 ft | 1 kts | 93° |
| 2026-04-26 12:54 | 22.64117 | 113.80132 | 16 ft | 5 kts | 93° |
| 2026-04-26 12:54 | 22.64102 | 113.80176 | 17 ft | 8 kts | 138° |
| 2026-04-26 12:54 | 22.64060 | 113.80235 | 15 ft | 12 kts | 119° |
| 2026-04-26 12:55 | 22.64046 | 113.80323 | 15 ft | 14 kts | 70° |
| 2026-04-26 12:55 | 22.64094 | 113.80430 | 15 ft | 18 kts | 62° |
| 2026-04-26 12:55 | 22.64146 | 113.80541 | 17 ft | 17 kts | 64° |
| 2026-04-26 12:55 | 22.64199 | 113.80653 | 15 ft | 9 kts | 62° |
| 2026-04-26 12:56 | 22.64262 | 113.80661 | 17 ft | 12 kts | 333° |
| 2026-04-26 12:56 | 22.64354 | 113.80613 | 17 ft | 17 kts | 335° |
| 2026-04-26 12:56 | 22.64471 | 113.80547 | 15 ft | 21 kts | 332° |
| 2026-04-26 12:56 | 22.64561 | 113.80496 | 15 ft | 23 kts | 333° |
| 2026-04-26 12:57 | 22.64769 | 113.80382 | 15 ft | 26 kts | 333° |
| 2026-04-26 12:57 | 22.64932 | 113.80292 | 16 ft | 27 kts | 332° |
| 2026-04-26 12:57 | 22.65100 | 113.80200 | 15 ft | 27 kts | 333° |
| 2026-04-26 12:58 | 22.65215 | 113.80195 | 17 ft | 7 kts | 59° |
| 2026-04-26 12:58 | 22.65237 | 113.80240 | 18 ft | 7 kts | 64° |
| 2026-04-26 12:58 | 22.65261 | 113.80323 | 15 ft | 7 kts | 114° |
| 2026-04-26 12:58 | 22.65228 | 113.80347 | 17 ft | 5 kts | 153° |
| 2026-04-26 12:59 | 22.65208 | 113.80358 | 16 ft | 5 kts | 153° |
| 2026-04-26 12:59 | 22.64918 | 113.80517 | 15 ft | 82 kts | 153° |
| 2026-04-26 12:59 | 22.64494 | 113.80750 | 15 ft | 123 kts | 153° |
| 2026-04-26 12:59 | 22.63190 | 113.81469 | 46 ft | 185 kts | 154° |
| 2026-04-26 13:00 | 22.62437 | 113.81891 | 548 ft | 177 kts | 154° |
| 2026-04-26 13:00 | 22.61356 | 113.82497 | 1166 ft | 177 kts | 151° |
| 2026-04-26 13:00 | 22.60261 | 113.83094 | 1769 ft | 176 kts | 152° |
| 2026-04-26 13:00 | 22.59159 | 113.83690 | 2277 ft | 178 kts | 152° |
| 2026-04-26 13:01 | 22.58049 | 113.84292 | 2772 ft | 179 kts | 152° |
| 2026-04-26 13:01 | 22.56934 | 113.84898 | 3235 ft | 181 kts | 153° |
| 2026-04-26 13:01 | 22.55751 | 113.85542 | 3434 ft | 200 kts | 154° |
| 2026-04-26 13:01 | 22.54447 | 113.86247 | 3554 ft | 220 kts | 153° |
| 2026-04-26 13:02 | 22.53007 | 113.87034 | 3850 ft | 241 kts | 153° |
| 2026-04-26 13:02 | 22.51568 | 113.88017 | 4534 ft | 250 kts | 134° |
| 2026-04-26 13:02 | 22.50662 | 113.89622 | 5294 ft | 255 kts | 106° |
| 2026-04-26 13:02 | 22.50573 | 113.91531 | 6080 ft | 259 kts | 77° |
| 2026-04-26 13:03 | 22.51262 | 113.93330 | 6858 ft | 261 kts | 63° |
| 2026-04-26 13:03 | 22.52102 | 113.95081 | 7617 ft | 264 kts | 62° |
| 2026-04-26 13:03 | 22.52958 | 113.96855 | 8328 ft | 268 kts | 62° |
| 2026-04-26 13:03 | 22.53821 | 113.98655 | 9048 ft | 271 kts | 61° |
| 2026-04-26 13:04 | 22.54902 | 114.00331 | 9745 ft | 274 kts | 43° |
| 2026-04-26 13:04 | 22.56440 | 114.01555 | 10347 ft | 279 kts | 25° |
| 2026-04-26 13:04 | 22.58346 | 114.02189 | 10549 ft | 298 kts | 5° |
| 2026-04-26 13:04 | 22.60494 | 114.02396 | 10724 ft | 322 kts | 3° |
| 2026-04-26 13:05 | 22.62804 | 114.02612 | 10861 ft | 345 kts | 4° |
| 2026-04-26 13:05 | 22.65266 | 114.02855 | 10983 ft | 366 kts | 4° |
| 2026-04-26 13:05 | 22.67848 | 114.03122 | 11331 ft | 377 kts | 4° |
| 2026-04-26 13:05 | 22.70481 | 114.03209 | 11891 ft | 380 kts | 353° |
| 2026-04-26 13:06 | 22.73059 | 114.02568 | 12485 ft | 382 kts | 338° |
| 2026-04-26 13:06 | 22.75532 | 114.01479 | 13106 ft | 385 kts | 336° |
| 2026-04-26 13:06 | 22.78016 | 114.00368 | 13715 ft | 388 kts | 336° |
| 2026-04-26 13:06 | 22.80524 | 113.99239 | 14255 ft | 392 kts | 336° |
| 2026-04-26 13:07 | 22.83050 | 113.98105 | 14780 ft | 394 kts | 336° |
| 2026-04-26 13:07 | 22.85597 | 113.96967 | 15277 ft | 398 kts | 337° |
| 2026-04-26 13:07 | 22.88208 | 113.96054 | 15736 ft | 402 kts | 347° |
| 2026-04-26 13:07 | 22.91000 | 113.95674 | 16208 ft | 407 kts | 358° |
| 2026-04-26 13:08 | 22.93835 | 113.95874 | 16658 ft | 411 kts | 8° |
| 2026-04-26 13:08 | 22.96676 | 113.96377 | 17118 ft | 415 kts | 8° |
| 2026-04-26 13:08 | 22.99533 | 113.96884 | 17576 ft | 418 kts | 8° |
| 2026-04-26 13:08 | 23.02415 | 113.97390 | 18014 ft | 421 kts | 8° |
| 2026-04-26 13:09 | 23.05319 | 113.97898 | 18429 ft | 424 kts | 8° |
| 2026-04-26 13:09 | 23.08246 | 113.98407 | 18814 ft | 427 kts | 8° |
| 2026-04-26 13:09 | 23.11184 | 113.98918 | 19231 ft | 429 kts | 8° |
| 2026-04-26 13:09 | 23.14138 | 113.99430 | 19631 ft | 431 kts | 8° |
| 2026-04-26 13:10 | 23.17104 | 113.99947 | 20037 ft | 433 kts | 7° |
| 2026-04-26 13:10 | 23.20082 | 114.00470 | 20440 ft | 435 kts | 7° |
| 2026-04-26 13:10 | 23.23073 | 114.00995 | 20851 ft | 436 kts | 7° |
| 2026-04-26 13:10 | 23.26065 | 114.01614 | 21249 ft | 440 kts | 13° |
| 2026-04-26 13:11 | 23.28958 | 114.02731 | 21634 ft | 444 kts | 22° |
| 2026-04-26 13:11 | 23.31659 | 114.04391 | 22002 ft | 449 kts | 32° |
| 2026-04-26 13:11 | 23.34139 | 114.06486 | 22353 ft | 453 kts | 37° |
| 2026-04-26 13:11 | 23.36600 | 114.08645 | 22715 ft | 456 kts | 36° |
| 2026-04-26 13:12 | 23.39085 | 114.10803 | 23059 ft | 458 kts | 36° |
| 2026-04-26 13:12 | 23.41589 | 114.12954 | 23410 ft | 460 kts | 35° |
| 2026-04-26 13:12 | 23.44116 | 114.15111 | 23733 ft | 463 kts | 35° |
| 2026-04-26 13:12 | 23.46655 | 114.17273 | 24029 ft | 464 kts | 35° |
| 2026-04-26 13:13 | 23.49205 | 114.19444 | 24329 ft | 466 kts | 35° |
| 2026-04-26 13:13 | 23.51762 | 114.21629 | 24636 ft | 468 kts | 35° |
| 2026-04-26 13:13 | 23.54328 | 114.23826 | 24932 ft | 469 kts | 35° |
| 2026-04-26 13:13 | 23.56895 | 114.26031 | 25218 ft | 471 kts | 35° |
| 2026-04-26 13:14 | 23.59468 | 114.28248 | 25507 ft | 473 kts | 35° |
| 2026-04-26 13:14 | 23.62050 | 114.30476 | 25781 ft | 474 kts | 35° |
| 2026-04-26 13:14 | 23.64645 | 114.32712 | 26067 ft | 476 kts | 35° |
| 2026-04-26 13:14 | 23.67261 | 114.34931 | 26329 ft | 477 kts | 34° |
| 2026-04-26 13:15 | 23.69912 | 114.37115 | 26604 ft | 479 kts | 33° |
| 2026-04-26 13:15 | 23.72558 | 114.39255 | 26885 ft | 480 kts | 33° |
| 2026-04-26 13:15 | 23.75249 | 114.41416 | 27179 ft | 481 kts | 33° |
| 2026-04-26 13:15 | 23.77936 | 114.43578 | 27563 ft | 480 kts | 33° |
| 2026-04-26 13:16 | 23.80614 | 114.45745 | 27982 ft | 478 kts | 33° |
| 2026-04-26 13:16 | 23.83275 | 114.47913 | 28389 ft | 477 kts | 33° |
| 2026-04-26 13:16 | 23.85926 | 114.50084 | 28795 ft | 475 kts | 33° |
| 2026-04-26 13:16 | 23.88562 | 114.52251 | 29202 ft | 474 kts | 33° |
| 2026-04-26 13:17 | 23.93821 | 114.56580 | 29965 ft | 473 kts | 33° |
| 2026-04-26 13:17 | 23.96444 | 114.58737 | 30327 ft | 471 kts | 33° |
| 2026-04-26 13:18 | 24.01708 | 114.63062 | 31019 ft | 469 kts | 33° |
| 2026-04-26 13:18 | 24.04306 | 114.65198 | 31356 ft | 467 kts | 32° |
| 2026-04-26 13:18 | 24.09485 | 114.69455 | 32038 ft | 464 kts | 32° |
| 2026-04-26 13:19 | 24.12064 | 114.71578 | 32375 ft | 463 kts | 32° |
| 2026-04-26 13:19 | 24.14633 | 114.73693 | 32729 ft | 461 kts | 32° |
| 2026-04-26 13:19 | 24.17195 | 114.75803 | 33084 ft | 460 kts | 32° |
| 2026-04-26 13:19 | 24.19708 | 114.77879 | 33427 ft | 458 kts | 32° |
| 2026-04-26 13:20 | 24.22246 | 114.79974 | 33762 ft | 457 kts | 32° |
| 2026-04-26 13:20 | 24.24779 | 114.82064 | 34099 ft | 455 kts | 32° |
| 2026-04-26 13:20 | 24.27281 | 114.84191 | 34371 ft | 457 kts | 36° |
| 2026-04-26 13:20 | 24.29525 | 114.86686 | 34611 ft | 464 kts | 45° |
| 2026-04-26 13:21 | 24.31513 | 114.89492 | 34838 ft | 466 kts | 47° |
| 2026-04-26 13:21 | 24.32847 | 114.91397 | 34990 ft | 467 kts | 47° |
| 2026-04-26 13:21 | 24.35470 | 114.95141 | 35147 ft | 469 kts | 47° |
| 2026-04-26 13:22 | 24.39478 | 115.00851 | 35172 ft | 473 kts | 47° |
| 2026-04-26 13:22 | 24.43487 | 115.06572 | 35164 ft | 473 kts | 46° |
| 2026-04-26 13:23 | 24.47493 | 115.12300 | 35163 ft | 473 kts | 46° |
| 2026-04-26 13:23 | 24.51494 | 115.18034 | 35161 ft | 473 kts | 46° |
| 2026-04-26 13:24 | 24.55491 | 115.23772 | 35166 ft | 474 kts | 47° |
| 2026-04-26 13:24 | 24.59497 | 115.29524 | 35172 ft | 474 kts | 46° |
| 2026-04-26 13:25 | 24.63497 | 115.35268 | 35197 ft | 473 kts | 46° |
| 2026-04-26 13:25 | 24.67486 | 115.41000 | 35188 ft | 471 kts | 46° |
| 2026-04-26 13:26 | 24.71484 | 115.46705 | 35180 ft | 471 kts | 46° |
| 2026-04-26 13:26 | 24.75502 | 115.52391 | 35181 ft | 471 kts | 46° |
| 2026-04-26 13:27 | 24.79521 | 115.58078 | 35175 ft | 471 kts | 46° |
| 2026-04-26 13:27 | 24.83533 | 115.63772 | 35199 ft | 470 kts | 46° |
| 2026-04-26 13:28 | 24.87501 | 115.69430 | 35198 ft | 470 kts | 45° |
| 2026-04-26 13:28 | 24.91487 | 115.75128 | 35177 ft | 469 kts | 45° |
| 2026-04-26 13:29 | 24.95467 | 115.80827 | 35176 ft | 469 kts | 46° |
| 2026-04-26 13:29 | 24.99444 | 115.86519 | 35172 ft | 469 kts | 45° |
| 2026-04-26 13:30 | 25.03422 | 115.92215 | 35167 ft | 469 kts | 46° |
| 2026-04-26 13:30 | 25.07397 | 115.97920 | 35192 ft | 469 kts | 45° |